createdAt,value
2019-03-28T00:01:08.565Z,7.2
2019-03-28T00:02:22.842Z,8.2
2019-03-28T00:03:36.985Z,8.9
2019-03-28T00:04:51.183Z,10
2019-03-28T00:06:05.490Z,7.7
2019-03-28T00:07:19.568Z,8.9
2019-03-28T00:08:33.770Z,9.1
2019-03-28T00:09:47.963Z,9.6
2019-03-28T00:11:02.271Z,8.7
2019-03-28T00:12:16.386Z,10.6
2019-03-28T00:13:30.627Z,11.5
2019-03-28T00:14:44.740Z,10
2019-03-28T00:15:58.948Z,8.4
2019-03-28T00:17:13.164Z,10.1
2019-03-28T00:18:27.353Z,11.4
2019-03-28T00:19:41.542Z,11.2
2019-03-28T00:20:55.745Z,8.4
2019-03-28T00:22:10.032Z,11.7
2019-03-28T00:23:24.142Z,8.5
2019-03-28T00:24:38.445Z,9.9
2019-03-28T00:25:52.543Z,12
2019-03-28T00:27:06.741Z,11.5
2019-03-28T00:28:20.918Z,9.9
2019-03-28T00:29:35.123Z,11.6
2019-03-28T00:30:49.321Z,9.8
2019-03-28T00:32:03.612Z,8.5
2019-03-28T00:33:18.020Z,9.6
2019-03-28T00:34:31.946Z,9.8
2019-03-28T00:35:46.261Z,10.1
2019-03-28T00:37:00.322Z,10.2
2019-03-28T00:38:14.565Z,8.7
2019-03-28T00:39:28.729Z,9.1
2019-03-28T00:40:43.187Z,10.6
2019-03-28T00:41:57.254Z,10.2
2019-03-28T00:43:11.460Z,9.3
2019-03-28T00:44:25.548Z,9.6
2019-03-28T00:45:39.734Z,9.7
2019-03-28T00:46:54.127Z,10.6
2019-03-28T00:48:08.133Z,8.7
2019-03-28T00:49:22.368Z,9.4
2019-03-28T00:50:36.529Z,9.6
2019-03-28T00:51:50.758Z,9.6
2019-03-28T00:53:04.891Z,10.7
2019-03-28T00:54:19.095Z,9
2019-03-28T00:55:33.257Z,9.8
2019-03-28T00:56:47.529Z,8.5
2019-03-28T00:58:01.903Z,9
2019-03-28T00:59:15.827Z,10.3
2019-03-28T01:00:30.019Z,11.2
2019-03-28T01:01:44.315Z,10.3
2019-03-28T01:02:58.403Z,9.3
2019-03-28T01:04:12.619Z,9.1
2019-03-28T01:05:26.779Z,9.2
2019-03-28T01:06:41.317Z,10.3
2019-03-28T01:07:55.159Z,10.5
2019-03-28T01:09:09.330Z,10.4
2019-03-28T01:10:23.757Z,10.8
2019-03-28T01:11:37.797Z,8.3
2019-03-28T01:12:51.922Z,10.5
2019-03-28T01:14:06.109Z,10.8
2019-03-28T01:15:20.317Z,11.1
2019-03-28T01:16:34.483Z,11.1
2019-03-28T01:17:48.715Z,10.7
2019-03-28T01:19:02.885Z,8.9
2019-03-28T01:20:17.045Z,11
2019-03-28T01:21:31.376Z,11.3
2019-03-28T01:22:45.496Z,9
2019-03-28T01:23:59.595Z,9.1
2019-03-28T01:25:13.778Z,10.3
2019-03-28T01:26:27.979Z,9.4
2019-03-28T01:27:42.182Z,10.4
2019-03-28T01:28:56.435Z,9.1
2019-03-28T01:30:10.516Z,11.1
2019-03-28T01:31:24.715Z,9.1
2019-03-28T01:32:39.059Z,9.9
2019-03-28T01:33:53.072Z,9.8
2019-03-28T01:35:07.286Z,9.7
2019-03-28T01:36:21.577Z,10
2019-03-28T01:37:35.645Z,10.6
2019-03-28T01:38:49.835Z,11.3
2019-03-28T01:40:04.156Z,10.3
2019-03-28T01:41:18.238Z,10.6
2019-03-28T01:42:32.616Z,11
2019-03-28T01:43:46.618Z,12.4
2019-03-28T01:45:00.829Z,10.7
2019-03-28T01:46:14.999Z,9.3
2019-03-28T01:47:29.326Z,11
2019-03-28T01:48:43.459Z,9.5
2019-03-28T01:49:57.683Z,10
2019-03-28T01:51:11.924Z,10.2
2019-03-28T01:52:25.921Z,11.3
2019-03-28T01:53:40.141Z,11.6
2019-03-28T01:54:54.342Z,12.3
2019-03-28T01:56:08.670Z,11.1
2019-03-28T01:57:22.785Z,13.1
2019-03-28T01:58:36.903Z,12.1
2019-03-28T01:59:51.149Z,10.8
2019-03-28T02:01:05.232Z,12
2019-03-28T02:02:19.440Z,12.5
2019-03-28T02:03:33.703Z,11.7
2019-03-28T02:04:47.884Z,10.5
2019-03-28T02:06:02.128Z,9.7
2019-03-28T02:07:16.366Z,11
2019-03-28T02:08:30.411Z,10.9
2019-03-28T02:09:44.658Z,12.1
2019-03-28T02:10:58.818Z,11.2
2019-03-28T02:12:13.066Z,12.6
2019-03-28T02:13:27.265Z,10.7
2019-03-28T02:14:41.372Z,10.4
2019-03-28T02:15:55.592Z,12.2
2019-03-28T02:17:09.997Z,12.5
2019-03-28T02:18:24.065Z,12.6
2019-03-28T02:19:38.200Z,11.7
2019-03-28T02:20:52.357Z,11.3
2019-03-28T02:22:06.577Z,12.4
2019-03-28T02:23:20.787Z,11.8
2019-03-28T02:24:35.030Z,12.9
2019-03-28T02:25:49.240Z,11.7
2019-03-28T02:27:03.580Z,11.3
2019-03-28T02:28:17.614Z,12
2019-03-28T02:29:31.739Z,11.7
2019-03-28T02:30:45.960Z,13.2
2019-03-28T02:32:00.261Z,13.3
2019-03-28T02:33:14.414Z,11.6
2019-03-28T02:34:28.518Z,12.1
2019-03-28T02:35:42.799Z,11.7
2019-03-28T02:36:56.907Z,11.9
2019-03-28T02:38:13.848Z,9.3
2019-03-28T02:39:25.733Z,12.3
2019-03-28T02:40:39.622Z,12.2
2019-03-28T02:41:53.805Z,12.3
2019-03-28T02:43:07.903Z,12.1
2019-03-28T02:44:22.106Z,13.5
2019-03-28T02:45:36.332Z,12.3
2019-03-28T02:46:50.510Z,13.1
2019-03-28T02:48:04.702Z,11.8
2019-03-28T02:49:18.946Z,12
2019-03-28T02:50:37.587Z,14.1
2019-03-28T02:51:49.524Z,13.5
2019-03-28T02:53:01.531Z,14.6
2019-03-28T02:54:15.750Z,12.9
2019-03-28T02:55:30.018Z,12.9
2019-03-28T02:56:44.116Z,14
2019-03-28T02:57:58.337Z,13.2
2019-03-28T02:59:12.544Z,13.5
2019-03-28T03:00:26.804Z,13.5
2019-03-28T03:01:40.922Z,13.2
2019-03-28T03:02:55.198Z,15.8
2019-03-28T03:04:09.298Z,14.6
2019-03-28T03:05:23.520Z,14.7
2019-03-28T03:06:37.866Z,13.5
2019-03-28T03:07:51.898Z,12.7
2019-03-28T03:09:06.101Z,14.9
2019-03-28T03:10:20.282Z,15.2
2019-03-28T03:11:34.492Z,15.7
2019-03-28T03:12:48.672Z,14.6
2019-03-28T03:14:02.869Z,14.4
2019-03-28T03:15:17.230Z,13.8
2019-03-28T03:16:31.351Z,12.5
2019-03-28T03:17:45.505Z,12.2
2019-03-28T03:18:59.716Z,16.2
2019-03-28T03:20:13.916Z,13
2019-03-28T03:21:28.023Z,15.3
2019-03-28T03:22:42.314Z,13.6
2019-03-28T03:23:56.434Z,16.9
2019-03-28T03:25:10.592Z,14.2
2019-03-28T03:26:24.769Z,14.1
2019-03-28T03:27:38.978Z,15.4
2019-03-28T03:28:53.276Z,17
2019-03-28T03:30:07.347Z,14.9
2019-03-28T03:31:21.546Z,15.2
2019-03-28T03:32:35.742Z,17.3
2019-03-28T03:33:49.993Z,14.1
2019-03-28T03:35:04.100Z,13
2019-03-28T03:36:18.341Z,15.2
2019-03-28T03:37:32.518Z,15
2019-03-28T03:38:46.666Z,14.5
2019-03-28T03:40:00.879Z,15.7
2019-03-28T03:41:15.096Z,13.2
2019-03-28T03:42:29.225Z,16.6
2019-03-28T03:43:43.395Z,14.9
2019-03-28T03:44:57.600Z,13.8
2019-03-28T03:46:11.833Z,16
2019-03-28T03:47:25.978Z,18.8
2019-03-28T03:48:40.243Z,14.6
2019-03-28T03:49:54.419Z,14.1
2019-03-28T03:51:08.507Z,13.4
2019-03-28T03:52:22.863Z,15.3
2019-03-28T03:53:36.984Z,17.5
2019-03-28T03:54:51.076Z,16.1
2019-03-28T03:56:07.994Z,18.5
2019-03-28T03:57:19.609Z,17.2
2019-03-28T03:58:33.637Z,14.9
2019-03-28T03:59:47.823Z,16
2019-03-28T04:01:02.018Z,17.5
2019-03-28T04:02:16.355Z,15.7
2019-03-28T04:03:30.431Z,15.3
2019-03-28T04:04:44.589Z,16.9
2019-03-28T04:05:58.767Z,18.7
2019-03-28T04:07:12.974Z,16.2
2019-03-28T04:08:27.285Z,17.8
2019-03-28T04:09:41.362Z,17.1
2019-03-28T04:10:55.515Z,16.7
2019-03-28T04:12:14.220Z,17.4
2019-03-28T04:13:26.663Z,16.9
2019-03-28T04:14:38.098Z,12.5
2019-03-28T04:15:52.298Z,18.2
2019-03-28T04:17:06.477Z,15.7
2019-03-28T04:18:20.774Z,17.6
2019-03-28T04:19:34.879Z,16.8
2019-03-28T04:20:49.141Z,17.3
2019-03-28T04:22:03.365Z,16.8
2019-03-28T04:23:17.474Z,16.3
2019-03-28T04:24:31.714Z,18.9
2019-03-28T04:25:45.901Z,15.7
2019-03-28T04:26:59.997Z,15.6
2019-03-28T04:28:14.192Z,17.8
2019-03-28T04:29:28.462Z,19.5
2019-03-28T04:30:42.578Z,16.9
2019-03-28T04:31:56.794Z,16.4
2019-03-28T04:33:10.955Z,16.9
2019-03-28T04:34:25.247Z,22.6
2019-03-28T04:35:39.343Z,16.6
2019-03-28T04:36:53.507Z,14.4
2019-03-28T04:38:07.774Z,15
2019-03-28T04:39:22.026Z,16.2
2019-03-28T04:40:36.084Z,15.8
2019-03-28T04:41:50.389Z,16.1
2019-03-28T04:43:04.459Z,16.8
2019-03-28T04:44:18.641Z,14.5
2019-03-28T04:45:32.839Z,15.9
2019-03-28T04:46:47.013Z,17
2019-03-28T04:48:01.330Z,16.3
2019-03-28T04:49:15.383Z,15.9
2019-03-28T04:50:29.648Z,16.5
2019-03-28T04:51:43.774Z,17.8
2019-03-28T04:52:57.928Z,17.6
2019-03-28T04:54:12.220Z,20.5
2019-03-28T04:55:26.291Z,18.5
2019-03-28T04:56:40.472Z,18.8
2019-03-28T04:57:54.678Z,18.7
2019-03-28T04:59:08.841Z,16.5
2019-03-28T05:00:23.135Z,19
2019-03-28T05:01:37.233Z,18
2019-03-28T05:02:51.392Z,18.4
2019-03-28T05:04:05.578Z,19.6
2019-03-28T05:05:19.784Z,18.9
2019-03-28T05:06:33.980Z,22.9
2019-03-28T05:07:48.285Z,21.3
2019-03-28T05:09:02.377Z,21.4
2019-03-28T05:10:16.777Z,23.1
2019-03-28T05:11:30.807Z,21.9
2019-03-28T05:12:47.023Z,21.1
2019-03-28T05:13:59.131Z,21.7
2019-03-28T05:15:13.429Z,20.6
2019-03-28T05:16:27.566Z,19.1
2019-03-28T05:17:41.768Z,21.1
2019-03-28T05:18:55.865Z,21.9
2019-03-28T05:20:10.106Z,23
2019-03-28T05:21:24.374Z,22.3
2019-03-28T05:22:38.422Z,23.8
2019-03-28T05:23:52.608Z,19.6
2019-03-28T05:25:06.912Z,24.4
2019-03-28T05:26:21.103Z,21
2019-03-28T05:27:35.228Z,21.9
2019-03-28T05:28:49.396Z,19.1
2019-03-28T05:30:03.586Z,21
2019-03-28T05:31:17.761Z,22.2
2019-03-28T05:32:31.975Z,21
2019-03-28T05:33:46.226Z,22.1
2019-03-28T05:35:00.349Z,21.5
2019-03-28T05:36:14.538Z,20.7
2019-03-28T05:37:28.723Z,25.5
2019-03-28T05:38:42.911Z,21.1
2019-03-28T05:39:57.749Z,19.6
2019-03-28T05:41:11.276Z,19.9
2019-03-28T05:42:25.628Z,19.3
2019-03-28T05:43:39.639Z,21.1
2019-03-28T05:44:54.006Z,23.9
2019-03-28T05:46:08.039Z,19.4
2019-03-28T05:47:22.202Z,20
2019-03-28T05:48:38.282Z,16.9
2019-03-28T05:49:50.579Z,17.8
2019-03-28T05:51:04.809Z,18.6
2019-03-28T05:52:19.030Z,19.9
2019-03-28T05:53:33.144Z,18.2
2019-03-28T05:54:47.343Z,21
2019-03-28T05:56:01.662Z,17.4
2019-03-28T05:57:15.905Z,15.7
2019-03-28T05:58:30.005Z,17.5
2019-03-28T05:59:44.068Z,17.8
2019-03-28T06:00:58.289Z,21.5
2019-03-28T06:02:12.441Z,20.1
2019-03-28T06:03:26.728Z,19.3
2019-03-28T06:04:40.818Z,16.8
2019-03-28T06:05:54.999Z,18.5
2019-03-28T06:07:09.202Z,16.6
2019-03-28T06:08:23.625Z,20.7
2019-03-28T06:09:37.787Z,19.5
2019-03-28T06:10:51.756Z,21.4
2019-03-28T06:12:05.933Z,17.5
2019-03-28T06:13:20.139Z,17.5
2019-03-28T06:14:34.308Z,19.8
2019-03-28T06:15:48.500Z,18
2019-03-28T06:17:02.681Z,19.6
2019-03-28T06:18:16.853Z,17.5
2019-03-28T06:19:31.220Z,19.4
2019-03-28T06:20:45.237Z,20.4
2019-03-28T06:21:59.393Z,19.9
2019-03-28T06:23:13.621Z,21.8
2019-03-28T06:24:27.769Z,21.8
2019-03-28T06:25:41.940Z,18.2
2019-03-28T06:26:56.111Z,19.8
2019-03-28T06:28:10.325Z,18.7
2019-03-28T06:29:24.508Z,21
2019-03-28T06:30:38.657Z,21.6
2019-03-28T06:31:52.860Z,20.1
2019-03-28T06:33:07.007Z,18.7
2019-03-28T06:34:21.194Z,21.5
2019-03-28T06:35:35.372Z,21.6
2019-03-28T06:36:49.764Z,21.7
2019-03-28T06:38:03.709Z,21.3
2019-03-28T06:39:17.889Z,19.3
2019-03-28T06:40:32.087Z,18.7
2019-03-28T06:41:46.334Z,18.2
2019-03-28T06:43:00.419Z,20.3
2019-03-28T06:44:14.585Z,20
2019-03-28T06:45:28.953Z,17.3
2019-03-28T06:46:42.914Z,18.8
2019-03-28T06:47:57.091Z,19.2
2019-03-28T06:49:11.261Z,18.6
2019-03-28T06:50:25.435Z,21.7
2019-03-28T06:51:39.632Z,19.4
2019-03-28T06:52:53.771Z,21
2019-03-28T06:54:07.940Z,18.1
2019-03-28T06:55:22.199Z,19.8
2019-03-28T06:56:36.299Z,18.1
2019-03-28T06:57:50.507Z,19.9
2019-03-28T06:59:04.632Z,19.7
2019-03-28T07:00:18.934Z,20.8
2019-03-28T07:01:32.979Z,18.1
2019-03-28T07:02:47.136Z,16.4
2019-03-28T07:04:01.369Z,17.8
2019-03-28T07:05:15.512Z,18.8
2019-03-28T07:06:29.807Z,19.3
2019-03-28T07:07:43.910Z,20.4
2019-03-28T07:08:58.096Z,21.1
2019-03-28T07:10:12.201Z,18.7
2019-03-28T07:11:26.379Z,18
2019-03-28T07:12:40.603Z,17.5
2019-03-28T07:13:54.885Z,16.8
2019-03-28T07:15:08.899Z,16.4
2019-03-28T07:16:23.079Z,18.6
2019-03-28T07:17:37.325Z,18.1
2019-03-28T07:18:51.638Z,17.5
2019-03-28T07:20:05.647Z,19.1
2019-03-28T07:21:24.682Z,20.5
2019-03-28T07:22:36.171Z,17.1
2019-03-28T07:23:49.565Z,17.1
2019-03-28T07:25:02.315Z,19.9
2019-03-28T07:26:16.656Z,21.8
2019-03-28T07:27:30.621Z,17.5
2019-03-28T07:28:44.806Z,17.3
2019-03-28T07:29:59.209Z,18.9
2019-03-28T07:31:13.202Z,21.2
2019-03-28T07:32:27.299Z,18
2019-03-28T07:33:41.694Z,17.7
2019-03-28T07:34:55.643Z,18.4
2019-03-28T07:36:09.874Z,18.8
2019-03-28T07:37:24.001Z,20.2
2019-03-28T07:38:38.170Z,20.7
2019-03-28T07:39:52.344Z,18.3
2019-03-28T07:41:06.514Z,19.1
2019-03-28T07:42:20.682Z,16.8
2019-03-28T07:43:34.847Z,17.3
2019-03-28T07:44:49.011Z,21.2
2019-03-28T07:46:03.176Z,17.9
2019-03-28T07:47:17.413Z,17
2019-03-28T07:48:31.659Z,18
2019-03-28T07:49:45.809Z,18
2019-03-28T07:51:00.008Z,19.6
2019-03-28T07:52:14.023Z,18.4
2019-03-28T07:53:28.213Z,18
2019-03-28T07:54:42.404Z,18.9
2019-03-28T07:55:56.546Z,19.9
2019-03-28T07:57:14.917Z,18.6
2019-03-28T07:58:26.374Z,16.8
2019-03-28T07:59:39.034Z,18.9
2019-03-28T08:00:53.216Z,19.3
2019-03-28T08:02:07.395Z,17.9
2019-03-28T08:03:21.583Z,18.7
2019-03-28T08:04:35.838Z,18
2019-03-28T08:05:49.933Z,19.3
2019-03-28T08:07:07.015Z,18.3
2019-03-28T08:08:18.351Z,15.9
2019-03-28T08:09:32.503Z,15.4
2019-03-28T08:10:46.568Z,16.9
2019-03-28T08:12:00.707Z,15.3
2019-03-28T08:13:14.922Z,15.4
2019-03-28T08:14:29.077Z,16.3
2019-03-28T08:15:43.235Z,17.1
2019-03-28T08:16:57.284Z,17.7
2019-03-28T08:18:11.444Z,16.9
2019-03-28T08:19:25.584Z,14.8
2019-03-28T08:20:39.705Z,14.9
2019-03-28T08:21:53.852Z,16.7
2019-03-28T08:23:08.016Z,14.5
2019-03-28T08:24:22.246Z,15.3
2019-03-28T08:25:36.297Z,16.3
2019-03-28T08:26:50.532Z,16.9
2019-03-28T08:28:04.572Z,16.6
2019-03-28T08:29:18.781Z,14.6
2019-03-28T08:30:32.829Z,14.3
2019-03-28T08:31:46.937Z,16.3
2019-03-28T08:33:01.142Z,13.2
2019-03-28T08:34:15.320Z,14.4
2019-03-28T08:35:29.358Z,13.3
2019-03-28T08:36:45.345Z,14.2
2019-03-28T08:37:57.560Z,13.1
2019-03-28T08:39:11.676Z,15.3
2019-03-28T08:40:25.819Z,14.8
2019-03-28T08:41:39.983Z,15.5
2019-03-28T08:42:54.061Z,14.7
2019-03-28T08:44:08.199Z,15.8
2019-03-28T08:45:22.407Z,14.1
2019-03-28T08:46:36.477Z,14.5
2019-03-28T08:47:50.589Z,10.1
2019-03-28T08:49:04.717Z,12.8
2019-03-28T08:50:18.840Z,12.9
2019-03-28T08:51:33.037Z,13
2019-03-28T08:52:47.086Z,16.1
2019-03-28T08:54:01.203Z,16
2019-03-28T08:55:15.321Z,13.8
2019-03-28T08:56:29.443Z,11.8
2019-03-28T08:57:43.585Z,13.7
2019-03-28T08:58:57.786Z,14.4
2019-03-28T09:00:11.811Z,12.4
2019-03-28T09:01:25.930Z,12.4
2019-03-28T09:02:40.131Z,15.1
2019-03-28T09:03:54.174Z,12.9
2019-03-28T09:05:08.285Z,11
2019-03-28T09:06:22.479Z,10.6
2019-03-28T09:07:36.563Z,13.9
2019-03-28T09:08:50.701Z,11.3
2019-03-28T09:10:04.788Z,11.4
2019-03-28T09:11:18.895Z,10
2019-03-28T09:12:33.008Z,10.6
2019-03-28T09:13:47.113Z,14.9
2019-03-28T09:15:01.249Z,12
2019-03-28T09:16:15.358Z,10.9
2019-03-28T09:17:29.480Z,10.4
2019-03-28T09:18:43.615Z,9.1
2019-03-28T09:19:57.810Z,10.3
2019-03-28T09:21:11.892Z,10.9
2019-03-28T09:22:25.956Z,14.9
2019-03-28T09:23:40.112Z,13.1
2019-03-28T09:24:54.390Z,12.8
2019-03-28T09:26:08.422Z,11.8
2019-03-28T09:27:22.571Z,12.9
2019-03-28T09:28:36.564Z,13.9
2019-03-28T09:29:50.667Z,10.6
2019-03-28T09:31:06.526Z,11.4
2019-03-28T09:32:18.963Z,10.7
2019-03-28T09:33:33.068Z,13.2
2019-03-28T09:34:47.157Z,11.4
2019-03-28T09:36:01.507Z,13.7
2019-03-28T09:37:15.385Z,9.9
2019-03-28T09:38:29.574Z,10.7
2019-03-28T09:39:43.714Z,10.2
2019-03-28T09:40:57.842Z,16.8
2019-03-28T09:42:11.970Z,11.1
2019-03-28T09:43:29.598Z,12.2
2019-03-28T09:44:40.123Z,11.6
2019-03-28T09:45:54.228Z,9.8
2019-03-28T09:47:08.355Z,11.7
2019-03-28T09:48:22.526Z,10.9
2019-03-28T09:49:36.633Z,11.6
2019-03-28T09:50:50.785Z,10.2
2019-03-28T09:52:04.883Z,12.7
2019-03-28T09:53:18.900Z,12.3
2019-03-28T09:54:33.137Z,10.8
2019-03-28T09:55:47.160Z,10.9
2019-03-28T09:57:01.243Z,12
2019-03-28T09:58:15.461Z,11.6
2019-03-28T09:59:29.495Z,9.6
2019-03-28T10:00:43.656Z,13.5
2019-03-28T10:01:57.816Z,12.4
2019-03-28T10:03:15.395Z,10.6
2019-03-28T10:04:27.950Z,12.5
2019-03-28T10:05:40.128Z,12.1
2019-03-28T10:06:54.157Z,13.5
2019-03-28T10:08:08.230Z,10
2019-03-28T10:09:22.396Z,12
2019-03-28T10:10:36.641Z,10.7
2019-03-28T10:11:50.557Z,11.3
2019-03-28T10:13:04.677Z,9.2
2019-03-28T10:14:18.858Z,10
2019-03-28T10:15:32.983Z,11.7
2019-03-28T10:16:46.993Z,10.6
2019-03-28T10:18:01.091Z,7.9
2019-03-28T10:19:15.259Z,7.6
2019-03-28T10:20:29.419Z,8
2019-03-28T10:21:43.445Z,8.3
2019-03-28T10:22:57.609Z,7.8
2019-03-28T10:24:11.683Z,8.5
2019-03-28T10:25:25.800Z,8.8
2019-03-28T10:26:40.059Z,8.3
2019-03-28T10:27:54.001Z,9.5
2019-03-28T10:29:08.238Z,13.7
2019-03-28T10:30:22.231Z,12.5
2019-03-28T10:31:36.652Z,6.7
2019-03-28T10:32:50.465Z,6.6
2019-03-28T10:34:04.733Z,5.1
2019-03-28T10:35:18.711Z,5.2
2019-03-28T10:36:32.831Z,4.8
2019-03-28T10:37:47.007Z,9.3
2019-03-28T10:39:01.058Z,11
2019-03-28T10:40:15.215Z,10.6
2019-03-28T10:41:29.255Z,7.9
2019-03-28T10:42:43.470Z,7.6
2019-03-28T10:43:57.454Z,8.5
2019-03-28T10:45:11.708Z,12.6
2019-03-28T10:46:25.743Z,8.6
2019-03-28T10:47:39.921Z,10.9
2019-03-28T10:48:53.963Z,7.7
2019-03-28T10:50:08.050Z,10.9
2019-03-28T10:51:22.216Z,9.5
2019-03-28T10:52:36.306Z,9.7
2019-03-28T10:53:50.391Z,9.5
2019-03-28T10:55:04.497Z,11
2019-03-28T10:56:18.653Z,8.6
2019-03-28T10:57:32.845Z,11
2019-03-28T10:58:46.853Z,8.8
2019-03-28T11:00:00.962Z,8.7
2019-03-28T11:01:15.191Z,8.2
2019-03-28T11:02:29.315Z,7.8
2019-03-28T11:03:43.307Z,8.5
2019-03-28T11:04:57.466Z,8.9
2019-03-28T11:06:11.517Z,10
2019-03-28T11:07:25.629Z,8.2
2019-03-28T11:08:39.746Z,6.7
2019-03-28T11:09:53.941Z,8
2019-03-28T11:11:08.042Z,8.2
2019-03-28T11:12:22.112Z,8.1
2019-03-28T11:13:36.259Z,7.1
2019-03-28T11:16:04.465Z,8.9
2019-03-28T11:17:18.520Z,7.6
2019-03-28T11:18:32.613Z,8.9
2019-03-28T11:19:46.774Z,8.6
2019-03-28T11:21:01.565Z,9.2
2019-03-28T11:22:14.941Z,8.3
2019-03-28T11:23:29.137Z,8.7
2019-03-28T11:24:43.234Z,8.9
2019-03-28T11:25:57.330Z,8
2019-03-28T11:27:11.434Z,7.5
2019-03-28T11:28:25.446Z,8.4
2019-03-28T11:29:39.542Z,6.9
2019-03-28T11:30:53.643Z,8.1
2019-03-28T11:32:07.758Z,8
2019-03-28T11:33:22.003Z,8.2
2019-03-28T11:34:35.978Z,6.5
2019-03-28T11:35:50.068Z,6.9
2019-03-28T11:37:04.199Z,10.4
2019-03-28T11:38:18.386Z,8
2019-03-28T11:39:32.493Z,7.6
2019-03-28T11:40:46.692Z,6.6
2019-03-28T11:42:00.758Z,8.5
2019-03-28T11:43:14.842Z,7.7
2019-03-28T11:44:28.849Z,8.4
2019-03-28T11:45:42.943Z,7.5
2019-03-28T11:46:57.125Z,7.9
2019-03-28T11:48:11.141Z,9.5
2019-03-28T11:49:25.375Z,7.8
2019-03-28T11:50:39.462Z,7
2019-03-28T11:51:53.501Z,6.9
2019-03-28T11:53:07.601Z,5.8
2019-03-28T11:54:21.712Z,3.9
2019-03-28T11:55:35.821Z,4.6
2019-03-28T11:56:49.953Z,3.9
2019-03-28T11:58:04.206Z,6.6
2019-03-28T11:59:18.276Z,4.4
2019-03-28T12:00:32.344Z,6.8
2019-03-28T12:01:46.429Z,4.6
2019-03-28T12:03:04.536Z,4
2019-03-28T12:04:16.867Z,4.9
2019-03-28T12:05:29.885Z,3.6
2019-03-28T12:06:43.089Z,3.7
2019-03-28T12:07:57.080Z,1.9
2019-03-28T12:09:11.185Z,2.8
2019-03-28T12:10:25.368Z,3.7
2019-03-28T12:11:39.438Z,3.3
2019-03-28T12:12:53.520Z,6.8
2019-03-28T12:14:07.765Z,5.1
2019-03-28T12:15:21.787Z,4.4
2019-03-28T12:16:35.873Z,5.6
2019-03-28T12:17:50.176Z,4.6
2019-03-28T12:19:04.246Z,3.9
2019-03-28T12:20:18.259Z,3.2
2019-03-28T12:21:32.374Z,1.9
2019-03-28T12:22:46.599Z,2.7
2019-03-28T12:24:00.779Z,2.6
2019-03-28T12:25:14.750Z,3.2
2019-03-28T12:26:28.997Z,2.3
2019-03-28T12:27:43.073Z,2.2
2019-03-28T12:28:57.256Z,3
2019-03-28T12:30:11.230Z,5
2019-03-28T12:31:25.359Z,3.8
2019-03-28T12:32:39.549Z,3
2019-03-28T12:33:53.621Z,3.8
2019-03-28T12:35:07.746Z,3.2
2019-03-28T12:36:21.910Z,4.8
2019-03-28T12:37:36.092Z,4.8
2019-03-28T12:38:50.248Z,5.1
2019-03-28T12:40:04.355Z,4.3
2019-03-28T12:41:18.412Z,6.6
2019-03-28T12:42:32.529Z,5.4
2019-03-28T12:43:46.735Z,4.9
2019-03-28T12:45:00.810Z,5.3
2019-03-28T12:46:15.036Z,4.3
2019-03-28T12:47:29.015Z,3.5
2019-03-28T12:48:43.351Z,3.8
2019-03-28T12:49:57.264Z,4.2
2019-03-28T12:51:11.396Z,3.1
2019-03-28T12:52:25.806Z,3.1
2019-03-28T12:53:39.645Z,3.2
2019-03-28T12:54:53.868Z,2.7
2019-03-28T12:56:07.895Z,4.9
2019-03-28T12:57:22.034Z,5.2
2019-03-28T12:58:36.144Z,4.1
2019-03-28T12:59:50.385Z,3.4
2019-03-28T13:01:04.373Z,2.8
2019-03-28T13:02:18.540Z,3.8
2019-03-28T13:03:32.662Z,4.5
2019-03-28T13:04:46.795Z,4.1
2019-03-28T13:06:00.910Z,5
2019-03-28T13:07:18.351Z,5.2
2019-03-28T13:08:30.419Z,3.7
2019-03-28T13:09:43.350Z,4
2019-03-28T13:10:57.474Z,5.5
2019-03-28T13:12:11.544Z,4.5
2019-03-28T13:13:25.809Z,5
2019-03-28T13:14:39.821Z,4.8
2019-03-28T13:15:53.944Z,4.5
2019-03-28T13:17:08.149Z,4.3
2019-03-28T13:18:22.315Z,4.5
2019-03-28T13:19:36.458Z,4.6
2019-03-28T13:20:50.450Z,4.3
2019-03-28T13:22:04.644Z,5.5
2019-03-28T13:23:18.801Z,4.7
2019-03-28T13:24:32.860Z,6.6
2019-03-28T13:25:48.214Z,5.4
2019-03-28T13:27:01.111Z,6.8
2019-03-28T13:28:15.263Z,5.6
2019-03-28T13:29:29.383Z,5.2
2019-03-28T13:30:43.592Z,7.8
2019-03-28T13:31:57.644Z,6.8
2019-03-28T13:33:13.418Z,6.2
2019-03-28T13:34:25.902Z,6.5
2019-03-28T13:35:40.111Z,5.3
2019-03-28T13:36:54.235Z,5.8
2019-03-28T13:38:08.277Z,6.9
2019-03-28T13:39:22.386Z,5.7
2019-03-28T13:40:36.578Z,5.7
2019-03-28T13:41:50.647Z,6
2019-03-28T13:43:04.754Z,6.4
2019-03-28T13:44:18.900Z,6.1
2019-03-28T13:45:33.113Z,8.1
2019-03-28T13:46:47.078Z,4.9
2019-03-28T13:48:01.217Z,4.2
2019-03-28T13:49:15.286Z,5.5
2019-03-28T13:50:29.407Z,6.1
2019-03-28T13:51:43.514Z,4.9
2019-03-28T13:52:57.615Z,5.7
2019-03-28T13:54:11.712Z,4.7
2019-03-28T13:55:25.854Z,4.4
2019-03-28T13:56:39.898Z,4.6
2019-03-28T13:57:53.971Z,4.8
2019-03-28T13:59:08.121Z,5.6
2019-03-28T14:00:22.210Z,4.8
2019-03-28T14:01:36.357Z,4.2
2019-03-28T14:02:50.435Z,5.7
2019-03-28T14:04:04.518Z,5.3
2019-03-28T14:05:18.732Z,5.8
2019-03-28T14:06:32.763Z,5
2019-03-28T14:07:46.895Z,4.5
2019-03-28T14:09:00.946Z,4.2
2019-03-28T14:10:15.091Z,5.1
2019-03-28T14:11:29.185Z,4.7
2019-03-28T14:12:43.281Z,5.1
2019-03-28T14:13:57.614Z,4.8
2019-03-28T14:15:11.511Z,5.8
2019-03-28T14:16:28.690Z,4.1
2019-03-28T14:17:42.069Z,6.3
2019-03-28T14:18:54.619Z,4.1
2019-03-28T14:20:08.484Z,4.4
2019-03-28T14:21:22.523Z,3.8
2019-03-28T14:22:36.302Z,4.5
2019-03-28T14:23:50.461Z,4.2
2019-03-28T14:25:04.551Z,5
2019-03-28T14:26:18.629Z,5.6
2019-03-28T14:27:32.759Z,4.1
2019-03-28T14:28:47.026Z,4
2019-03-28T14:30:01.544Z,5.2
2019-03-28T14:31:15.304Z,4.3
2019-03-28T14:32:29.312Z,5
2019-03-28T14:33:43.527Z,4.2
2019-03-28T14:34:57.616Z,4.5
2019-03-28T14:36:11.750Z,4.8
2019-03-28T14:37:25.904Z,4.6
2019-03-28T14:38:40.101Z,5.2
2019-03-28T14:39:54.178Z,5.5
2019-03-28T14:41:08.324Z,7.5
2019-03-28T14:42:22.470Z,8.1
2019-03-28T14:43:36.672Z,9.8
2019-03-28T14:44:50.751Z,10
2019-03-28T14:46:05.045Z,10.3
2019-03-28T14:47:19.054Z,11.1
2019-03-28T14:48:33.571Z,9.3
2019-03-28T14:49:47.400Z,12.9
2019-03-28T14:51:01.623Z,10.3
2019-03-28T14:52:15.636Z,11.8
2019-03-28T14:53:29.794Z,10.7
2019-03-28T14:54:43.942Z,11.2
2019-03-28T14:55:58.121Z,10.8
2019-03-28T14:57:12.234Z,10.3
2019-03-28T14:58:26.361Z,8.6
2019-03-28T14:59:40.526Z,11.6
2019-03-28T15:00:54.774Z,9.5
2019-03-28T15:02:08.797Z,9.3
2019-03-28T15:03:22.970Z,10.4
2019-03-28T15:04:37.072Z,12.6
2019-03-28T15:05:51.279Z,12.6
2019-03-28T15:07:05.577Z,13.2
2019-03-28T15:08:19.583Z,11.5
2019-03-28T15:09:33.789Z,13.4
2019-03-28T15:10:47.829Z,12.2
2019-03-28T15:12:02.011Z,11.3
2019-03-28T15:13:16.161Z,12
2019-03-28T15:14:30.367Z,11.5
2019-03-28T15:15:44.549Z,13.2
2019-03-28T15:16:58.629Z,10.9
2019-03-28T15:18:12.741Z,11.1
2019-03-28T15:19:26.899Z,10.8
2019-03-28T15:20:41.100Z,13.4
2019-03-28T15:21:55.188Z,12.8
2019-03-28T15:23:09.342Z,10.9
2019-03-28T15:24:23.542Z,11.3
2019-03-28T15:25:37.634Z,13.8
2019-03-28T15:26:51.889Z,12.9
2019-03-28T15:28:10.190Z,12.1
2019-03-28T15:29:20.089Z,11.2
2019-03-28T15:30:34.199Z,11.7
2019-03-28T15:31:48.350Z,11.5
2019-03-28T15:33:02.554Z,12.4
2019-03-28T15:34:16.758Z,12
2019-03-28T15:35:30.795Z,11.9
2019-03-28T15:36:45.046Z,11.8
2019-03-28T15:37:59.137Z,12.1
2019-03-28T15:39:13.274Z,13.3
2019-03-28T15:40:27.452Z,11.8
2019-03-28T15:41:41.586Z,11.3
2019-03-28T15:42:55.854Z,11.4
2019-03-28T15:44:10.051Z,11.3
2019-03-28T15:45:24.040Z,9.5
2019-03-28T15:46:38.294Z,11.2
2019-03-28T15:47:52.349Z,11.4
2019-03-28T15:49:06.543Z,8.7
2019-03-28T15:50:20.758Z,11.3
2019-03-28T15:51:34.802Z,10.9
2019-03-28T15:52:48.962Z,11
2019-03-28T15:54:03.096Z,10.3
2019-03-28T15:55:17.280Z,11.9
2019-03-28T15:56:31.414Z,12.5
2019-03-28T15:57:45.543Z,12.2
2019-03-28T15:58:59.690Z,12.7
2019-03-28T16:00:14.076Z,11.8
2019-03-28T16:01:28.110Z,12
2019-03-28T16:02:42.246Z,12.3
2019-03-28T16:03:56.328Z,11.3
2019-03-28T16:05:10.552Z,14.3
2019-03-28T16:06:24.626Z,12
2019-03-28T16:07:38.781Z,14.2
2019-03-28T16:08:53.022Z,12
2019-03-28T16:10:07.123Z,13
2019-03-28T16:11:21.426Z,11.5
2019-03-28T16:12:35.415Z,11
2019-03-28T16:13:49.604Z,15.7
2019-03-28T16:15:03.725Z,14.5
2019-03-28T16:16:17.881Z,12.2
2019-03-28T16:17:32.032Z,12.7
2019-03-28T16:18:46.290Z,11.1
2019-03-28T16:20:00.362Z,12.4
2019-03-28T16:21:14.553Z,12.9
2019-03-28T16:22:28.673Z,15.2
2019-03-28T16:23:42.837Z,13
2019-03-28T16:24:57.001Z,12
2019-03-28T16:26:11.194Z,12.1
2019-03-28T16:27:25.337Z,13.2
2019-03-28T16:28:39.870Z,13.7
2019-03-28T16:29:53.699Z,14.3
2019-03-28T16:31:07.788Z,14.1
2019-03-28T16:32:22.004Z,13.4
2019-03-28T16:33:36.522Z,13.7
2019-03-28T16:34:50.339Z,12.2
2019-03-28T16:36:04.555Z,14.4
2019-03-28T16:37:18.584Z,14.7
2019-03-28T16:38:32.787Z,11.8
2019-03-28T16:39:46.991Z,12.3
2019-03-28T16:41:01.103Z,14.2
2019-03-28T16:42:15.385Z,12.8
2019-03-28T16:43:29.409Z,12.2
2019-03-28T16:44:43.598Z,12.6
2019-03-28T16:45:57.989Z,12.8